createdAt,value
2019-02-15T00:01:57.348Z,108.40
2019-02-15T00:04:27.520Z,104.32
2019-02-15T00:10:13.565Z,115.60
2019-02-15T00:12:43.937Z,100.00
2019-02-15T00:15:23.770Z,93.67
2019-02-15T00:17:55.290Z,82.65
2019-02-15T00:23:23.737Z,87.02
2019-02-15T00:25:57.323Z,91.00
2019-02-15T00:28:40.573Z,93.27
2019-02-15T00:31:19.879Z,85.45
2019-02-15T00:33:59.307Z,85.60
2019-02-15T00:36:45.736Z,89.28
2019-02-15T00:39:17.888Z,84.72
2019-02-15T00:42:03.099Z,89.03
2019-02-15T00:44:46.741Z,93.40
2019-02-15T00:47:37.057Z,89.35
2019-02-15T00:50:19.721Z,84.25
2019-02-15T00:52:58.723Z,92.08
2019-02-15T00:55:46.879Z,101.50
2019-02-15T00:58:20.214Z,96.85
2019-02-15T01:01:23.376Z,88.00
2019-02-15T01:04:22.328Z,89.62
2019-02-15T01:07:02.580Z,85.00
2019-02-15T01:09:59.066Z,87.78
2019-02-15T01:12:37.991Z,86.15
2019-02-15T01:15:11.243Z,86.42
2019-02-15T01:17:47.428Z,84.03
2019-02-15T01:20:34.199Z,85.12
2019-02-15T01:23:11.426Z,85.05
2019-02-15T01:25:43.160Z,89.40
2019-02-15T01:28:44.513Z,82.85
2019-02-15T01:31:18.164Z,81.85
2019-02-15T01:37:03.641Z,79.37
2019-02-15T01:40:05.141Z,74.58
2019-02-15T01:42:58.696Z,77.78
2019-02-15T01:45:33.260Z,82.53
2019-02-15T01:48:14.262Z,80.65
2019-02-15T01:50:44.394Z,73.55
2019-02-15T01:53:25.174Z,80.17
2019-02-15T01:55:55.291Z,75.60
2019-02-15T01:58:25.416Z,82.30
2019-02-15T02:00:58.032Z,80.10
2019-02-15T02:03:31.519Z,76.17
2019-02-15T02:06:18.077Z,78.87
2019-02-15T02:08:48.205Z,75.22
2019-02-15T02:11:19.305Z,80.35
2019-02-15T02:13:50.969Z,75.75
2019-02-15T02:16:21.115Z,78.75
2019-02-15T02:18:51.177Z,85.92
2019-02-15T02:21:28.868Z,71.82
2019-02-15T02:24:06.590Z,79.32
2019-02-15T02:26:40.188Z,77.30
2019-02-15T02:32:01.969Z,78.42
2019-02-15T02:34:38.343Z,81.78
2019-02-15T02:37:13.602Z,85.07
2019-02-15T02:39:56.148Z,84.05
2019-02-15T02:42:33.042Z,80.55
2019-02-15T02:45:03.329Z,80.97
2019-02-15T02:47:33.418Z,75.55
2019-02-15T02:50:09.794Z,87.40
2019-02-15T02:52:43.397Z,80.83
2019-02-15T02:57:49.925Z,72.10
2019-02-15T03:00:33.578Z,78.50
2019-02-15T03:03:15.303Z,77.32
2019-02-15T03:05:45.496Z,79.87
2019-02-15T03:08:21.697Z,74.10
2019-02-15T03:10:51.824Z,76.15
2019-02-15T03:13:21.931Z,83.47
2019-02-15T03:15:58.227Z,80.53
2019-02-15T03:18:29.924Z,89.70
2019-02-15T03:21:01.046Z,86.78
2019-02-15T03:23:31.170Z,94.83
2019-02-15T03:26:01.347Z,76.22
2019-02-15T03:28:41.865Z,81.47
2019-02-15T03:31:12.052Z,71.45
2019-02-15T03:39:41.059Z,79.75
2019-02-15T03:42:12.752Z,77.62
2019-02-15T03:44:42.920Z,76.90
2019-02-15T03:47:14.781Z,78.15
2019-02-15T03:49:50.899Z,73.33
2019-02-15T03:52:21.160Z,76.77
2019-02-15T03:54:51.273Z,69.77
2019-02-15T03:57:21.399Z,78.05
2019-02-15T03:59:53.023Z,79.58
2019-02-15T04:02:23.173Z,73.20
2019-02-15T04:04:53.278Z,71.25
2019-02-15T04:07:38.583Z,71.30
2019-02-15T04:10:09.371Z,74.55
2019-02-15T04:12:39.509Z,63.90
2019-02-15T04:15:11.158Z,69.53
2019-02-15T04:17:51.599Z,76.57
2019-02-15T04:20:31.794Z,71.53
2019-02-15T04:23:01.880Z,83.15
2019-02-15T04:25:33.565Z,98.42
2019-02-15T04:28:03.651Z,96.72
2019-02-15T04:30:41.324Z,87.78
2019-02-15T04:33:25.167Z,94.40
2019-02-15T04:36:11.310Z,93.27
2019-02-15T04:38:53.432Z,89.42
2019-02-15T04:41:29.695Z,91.05
2019-02-15T04:46:01.650Z,91.65
2019-02-15T04:48:38.277Z,88.80
2019-02-15T04:51:10.912Z,77.82
2019-02-15T04:53:57.983Z,89.30
2019-02-15T04:56:39.627Z,88.60
2019-02-15T04:59:09.686Z,84.22
2019-02-15T05:01:39.803Z,83.00
2019-02-15T05:04:09.909Z,84.97
2019-02-15T05:06:42.476Z,85.67
2019-02-15T05:09:13.614Z,79.75
2019-02-15T05:11:50.926Z,87.72
2019-02-15T05:14:21.232Z,82.45
2019-02-15T05:16:55.732Z,83.07
2019-02-15T05:19:33.347Z,83.60
2019-02-15T05:22:41.432Z,91.63
2019-02-15T05:25:13.369Z,82.50
2019-02-15T05:28:01.395Z,90.05
2019-02-15T05:30:50.069Z,93.33
2019-02-15T05:33:26.328Z,82.55
2019-02-15T05:35:59.803Z,88.05
2019-02-15T05:38:29.886Z,73.10
2019-02-15T05:41:12.985Z,80.77
2019-02-15T05:43:42.726Z,76.70
2019-02-15T05:46:21.513Z,81.57
2019-02-15T05:49:06.503Z,78.87
2019-02-15T05:51:39.999Z,88.52
2019-02-15T05:54:12.759Z,85.90
2019-02-15T05:56:42.821Z,74.53
2019-02-15T05:59:12.714Z,72.53
2019-02-15T06:01:42.758Z,74.90
2019-02-15T06:04:12.841Z,78.78
2019-02-15T06:06:43.949Z,80.30
2019-02-15T06:09:13.973Z,82.88
2019-02-15T06:11:44.010Z,74.45
2019-02-15T06:14:14.102Z,82.70
2019-02-15T06:16:44.407Z,77.72
2019-02-15T06:19:14.320Z,77.60
2019-02-15T06:21:44.337Z,83.05
2019-02-15T06:24:14.468Z,76.42
2019-02-15T06:26:44.452Z,82.17
2019-02-15T06:29:14.521Z,81.82
2019-02-15T06:31:44.484Z,84.47
2019-02-15T06:34:15.182Z,77.37
2019-02-15T06:36:45.239Z,76.35
2019-02-15T06:39:15.269Z,76.00
2019-02-15T06:41:45.326Z,70.87
2019-02-15T06:44:15.994Z,78.92
2019-02-15T06:46:46.107Z,67.55
2019-02-15T06:49:16.041Z,74.12
2019-02-15T06:51:46.176Z,76.65
2019-02-15T06:54:16.188Z,110.60
2019-02-15T06:56:46.340Z,111.90
2019-02-15T06:59:30.552Z,109.90
2019-02-15T07:02:02.204Z,100.67
2019-02-15T07:04:47.320Z,108.83
2019-02-15T07:07:17.357Z,116.90
2019-02-15T07:09:47.372Z,143.75
2019-02-15T07:12:17.445Z,164.55
2019-02-15T07:14:53.616Z,137.85
2019-02-15T07:17:30.768Z,94.50
2019-02-15T07:20:00.784Z,160.10
2019-02-15T07:22:30.905Z,131.25
2019-02-15T07:25:00.861Z,132.72
2019-02-15T07:27:31.908Z,108.42
2019-02-15T07:30:02.011Z,103.55
2019-02-15T07:32:32.071Z,102.97
2019-02-15T07:35:02.043Z,104.32
2019-02-15T07:37:32.078Z,88.78
2019-02-15T07:40:02.161Z,76.10
2019-02-15T07:42:32.245Z,69.75
2019-02-15T07:45:02.211Z,67.25
2019-02-15T07:47:32.200Z,68.17
2019-02-15T07:50:02.365Z,68.02
2019-02-15T07:52:32.566Z,66.30
2019-02-15T07:55:02.695Z,70.62
2019-02-15T07:57:33.991Z,76.80
2019-02-15T08:00:09.467Z,81.60
2019-02-15T08:02:39.567Z,75.85
2019-02-15T08:05:10.173Z,65.97
2019-02-15T08:07:40.291Z,64.53
2019-02-15T08:10:11.319Z,76.82
2019-02-15T08:12:41.277Z,58.38
2019-02-15T08:15:12.243Z,52.25
2019-02-15T08:17:42.227Z,49.00
2019-02-15T08:20:12.315Z,52.53
2019-02-15T08:22:42.308Z,54.03
2019-02-15T08:25:12.472Z,55.17
2019-02-15T08:27:42.425Z,50.78
2019-02-15T08:30:12.445Z,48.80
2019-02-15T08:32:42.443Z,41.37
2019-02-15T08:35:12.390Z,47.83
2019-02-15T08:37:42.448Z,41.35
2019-02-15T08:40:12.511Z,48.92
2019-02-15T08:42:43.587Z,56.73
2019-02-15T08:45:13.652Z,44.60
2019-02-15T08:47:43.586Z,35.25
2019-02-15T08:50:13.635Z,46.28
2019-02-15T08:52:43.639Z,37.05
2019-02-15T08:55:13.693Z,46.95
2019-02-15T08:57:43.715Z,42.08
2019-02-15T09:00:13.986Z,42.85
2019-02-15T09:02:43.928Z,39.85
2019-02-15T09:05:13.901Z,39.75
2019-02-15T09:07:43.843Z,36.83
2019-02-15T09:10:14.101Z,37.98
2019-02-15T09:12:44.158Z,41.90
2019-02-15T09:15:19.692Z,39.25
2019-02-15T09:17:49.713Z,35.60
2019-02-15T09:20:19.829Z,35.17
2019-02-15T09:22:50.048Z,31.50
2019-02-15T09:25:20.302Z,35.48
2019-02-15T09:28:09.234Z,34.58
2019-02-15T09:30:39.457Z,30.50
2019-02-15T09:33:09.495Z,32.70
2019-02-15T09:35:40.737Z,32.30
2019-02-15T09:38:10.666Z,30.62
2019-02-15T09:40:40.951Z,32.23
2019-02-15T09:43:10.947Z,35.45
2019-02-15T09:45:42.531Z,37.53
2019-02-15T09:48:12.678Z,30.25
2019-02-15T09:50:42.765Z,36.85
2019-02-15T09:53:12.908Z,34.05
2019-02-15T09:55:42.931Z,31.68
2019-02-15T09:58:13.150Z,32.58
2019-02-15T10:00:43.341Z,31.90
2019-02-15T10:03:13.458Z,39.30
2019-02-15T10:05:43.781Z,49.15
2019-02-15T10:08:13.833Z,28.25
2019-02-15T10:10:44.167Z,37.90
2019-02-15T10:13:14.171Z,38.80
2019-02-15T10:15:44.943Z,27.93
2019-02-15T10:18:14.993Z,33.38
2019-02-15T10:20:45.283Z,31.82
2019-02-15T10:23:15.343Z,34.15
2019-02-15T10:25:45.735Z,38.88
2019-02-15T10:28:15.773Z,27.48
2019-02-15T10:30:45.785Z,30.10
2019-02-15T10:33:15.931Z,34.60
2019-02-15T10:35:47.636Z,26.60
2019-02-15T10:38:17.761Z,35.60
2019-02-15T10:40:48.057Z,33.38
2019-02-15T10:43:18.319Z,35.80
2019-02-15T10:45:48.325Z,28.47
2019-02-15T10:48:18.535Z,25.40
2019-02-15T10:50:48.561Z,70.72
2019-02-15T10:53:18.677Z,36.80
2019-02-15T10:55:48.934Z,26.90
2019-02-15T10:58:18.897Z,27.85
2019-02-15T11:00:48.867Z,31.55
2019-02-15T11:03:18.945Z,27.10
2019-02-15T11:05:48.923Z,31.02
2019-02-15T11:08:19.061Z,30.90
2019-02-15T11:10:49.071Z,27.42
2019-02-15T11:13:19.286Z,31.00
2019-02-15T11:15:49.555Z,29.45
2019-02-15T11:18:19.680Z,27.50
2019-02-15T11:20:49.981Z,27.60
2019-02-15T11:23:20.069Z,29.57
2019-02-15T11:25:51.869Z,33.95
2019-02-15T11:28:21.993Z,27.95
2019-02-15T11:30:52.147Z,29.57
2019-02-15T11:33:22.317Z,24.05
2019-02-15T11:35:52.348Z,33.83
2019-02-15T11:38:22.373Z,29.65
2019-02-15T11:40:52.488Z,31.27
2019-02-15T11:43:22.577Z,25.43
2019-02-15T11:45:52.694Z,25.20
2019-02-15T11:48:22.797Z,27.22
2019-02-15T11:50:52.931Z,30.32
2019-02-15T11:53:22.979Z,28.87
2019-02-15T11:55:52.902Z,26.10
2019-02-15T11:58:22.968Z,23.65
2019-02-15T12:00:53.175Z,23.83
2019-02-15T12:03:23.272Z,24.80
2019-02-15T12:05:53.322Z,26.45
2019-02-15T12:08:23.345Z,28.60
2019-02-15T12:10:53.469Z,23.10
2019-02-15T12:13:23.599Z,21.50
2019-02-15T12:15:53.748Z,28.05
2019-02-15T12:18:23.831Z,24.63
2019-02-15T12:20:54.261Z,20.88
2019-02-15T12:23:24.273Z,33.08
2019-02-15T12:25:54.402Z,19.40
2019-02-15T12:28:24.353Z,23.18
2019-02-15T12:30:54.417Z,24.05
2019-02-15T12:33:24.439Z,23.57
2019-02-15T12:35:54.488Z,20.50
2019-02-15T12:38:24.503Z,21.93
2019-02-15T12:40:54.650Z,21.37
2019-02-15T12:43:24.811Z,22.93
2019-02-15T12:45:55.187Z,25.10
2019-02-15T12:48:25.133Z,27.77
2019-02-15T12:51:01.357Z,20.17
2019-02-15T12:53:31.282Z,22.10
2019-02-15T12:56:01.400Z,18.85
2019-02-15T12:58:31.486Z,25.02
2019-02-15T13:01:01.754Z,21.87
2019-02-15T13:03:31.884Z,20.37
2019-02-15T13:06:03.653Z,26.25
2019-02-15T13:08:33.724Z,20.72
2019-02-15T13:11:03.884Z,25.77
2019-02-15T13:13:33.940Z,31.68
2019-02-15T13:16:06.951Z,31.82
2019-02-15T13:18:36.970Z,33.88
2019-02-15T13:21:06.970Z,29.92
2019-02-15T13:23:37.120Z,24.43
2019-02-15T13:26:08.850Z,29.60
2019-02-15T13:28:39.113Z,24.95
2019-02-15T13:31:09.127Z,25.12
2019-02-15T13:33:39.255Z,22.07
2019-02-15T13:36:09.297Z,24.47
2019-02-15T13:38:39.424Z,26.45
2019-02-15T13:41:09.305Z,27.62
2019-02-15T13:43:39.366Z,20.88
2019-02-15T13:46:09.594Z,29.32
2019-02-15T13:48:39.630Z,25.80
2019-02-15T13:51:09.581Z,23.10
2019-02-15T13:53:39.626Z,30.77
2019-02-15T13:56:09.678Z,23.83
2019-02-15T13:58:39.722Z,22.32
2019-02-15T14:01:09.914Z,23.98
2019-02-15T14:03:40.080Z,23.40
2019-02-15T14:06:10.156Z,24.87
2019-02-15T14:08:40.136Z,25.05
2019-02-15T14:11:10.170Z,23.85
2019-02-15T14:13:40.236Z,23.42
2019-02-15T14:16:11.252Z,26.10
2019-02-15T14:18:41.412Z,27.20
2019-02-15T14:21:11.362Z,34.15
2019-02-15T14:23:41.580Z,19.23
2019-02-15T14:26:11.618Z,25.55
2019-02-15T14:28:41.667Z,24.72
2019-02-15T14:31:11.640Z,26.97
2019-02-15T14:33:41.848Z,29.12
2019-02-15T14:36:11.785Z,27.45
2019-02-15T14:38:41.860Z,24.98
2019-02-15T14:41:11.866Z,36.77
2019-02-15T14:43:41.968Z,40.60
2019-02-15T14:46:12.097Z,35.17
2019-02-15T14:48:42.112Z,28.12
2019-02-15T14:51:12.232Z,29.70
2019-02-15T14:53:42.270Z,27.58
2019-02-15T14:56:13.725Z,25.17
2019-02-15T14:58:43.748Z,22.87
2019-02-15T15:01:13.887Z,23.83
2019-02-15T15:03:44.002Z,22.17
2019-02-15T15:06:14.128Z,28.32
2019-02-15T15:08:44.196Z,21.12
2019-02-15T15:11:14.317Z,30.88
2019-02-15T15:13:44.210Z,26.25
2019-02-15T15:16:15.964Z,26.82
2019-02-15T15:18:46.035Z,20.45
2019-02-15T15:21:16.132Z,30.60
2019-02-15T15:23:46.342Z,26.55
2019-02-15T15:26:16.510Z,22.52
2019-02-15T15:28:46.565Z,28.92
2019-02-15T15:31:16.616Z,22.62
2019-02-15T15:33:46.698Z,36.08
2019-02-15T15:36:18.287Z,22.27
2019-02-15T15:38:48.487Z,23.25
2019-02-15T15:41:18.496Z,30.70
2019-02-15T15:43:48.603Z,22.02
2019-02-15T15:46:18.792Z,29.37
2019-02-15T15:48:48.821Z,27.98
2019-02-15T15:51:18.909Z,19.37
2019-02-15T15:53:48.913Z,20.80
2019-02-15T15:56:18.965Z,26.65
2019-02-15T15:58:48.991Z,22.98
2019-02-15T16:01:19.041Z,20.27
2019-02-15T16:03:49.117Z,29.30
2019-02-15T16:06:24.401Z,26.68
2019-02-15T16:08:50.861Z,30.70
2019-02-15T16:11:20.943Z,30.37
2019-02-15T16:13:50.921Z,32.85
2019-02-15T16:16:21.105Z,36.70
2019-02-15T16:18:51.140Z,30.27
2019-02-15T16:21:22.073Z,27.50
2019-02-15T16:23:54.985Z,30.90
2019-02-15T16:26:25.085Z,50.17
2019-02-15T16:28:55.220Z,26.93
2019-02-15T16:31:25.402Z,28.05
2019-02-15T16:33:55.565Z,32.15
2019-02-15T16:36:25.656Z,30.62
2019-02-15T16:38:55.781Z,28.30
2019-02-15T16:41:25.860Z,32.90
2019-02-15T16:43:55.992Z,34.08
2019-02-15T16:46:26.001Z,28.55
2019-02-15T16:48:56.057Z,26.52
2019-02-15T16:51:26.139Z,30.45
2019-02-15T16:53:56.273Z,45.75
2019-02-15T16:56:26.346Z,59.85
2019-02-15T16:58:57.335Z,48.17
2019-02-15T17:01:27.415Z,47.43
2019-02-15T17:03:57.509Z,48.38
2019-02-15T17:06:27.727Z,42.83
2019-02-15T17:08:57.897Z,50.35
2019-02-15T17:11:27.917Z,62.78
2019-02-15T17:13:57.973Z,71.40
2019-02-15T17:16:29.056Z,72.40
2019-02-15T17:18:59.199Z,68.47
2019-02-15T17:21:29.312Z,49.60
2019-02-15T17:23:59.484Z,53.23
2019-02-15T17:26:29.497Z,60.55
2019-02-15T17:28:59.673Z,109.90
2019-02-15T17:31:29.683Z,77.78
2019-02-15T17:33:59.749Z,94.45
2019-02-15T17:36:29.768Z,81.08
2019-02-15T17:38:59.836Z,92.08
2019-02-15T17:41:29.852Z,100.25
2019-02-15T17:43:59.971Z,93.92
2019-02-15T17:46:30.087Z,105.32
2019-02-15T17:49:01.027Z,109.72
2019-02-15T17:51:31.524Z,123.60
2019-02-15T17:54:01.663Z,124.95
2019-02-15T17:56:31.707Z,115.05
2019-02-15T17:59:01.815Z,141.03
2019-02-15T18:01:32.708Z,158.07
2019-02-15T18:04:02.872Z,114.70
2019-02-15T18:06:32.905Z,100.35
2019-02-15T18:09:03.085Z,105.35
2019-02-15T18:11:34.746Z,125.33
2019-02-15T18:14:04.816Z,159.03
2019-02-15T18:16:35.922Z,175.85
2019-02-15T18:19:10.013Z,153.80
2019-02-15T18:21:37.783Z,152.57
2019-02-15T18:24:07.835Z,131.32
2019-02-15T18:26:37.942Z,176.05
2019-02-15T18:29:08.061Z,200.97
2019-02-15T18:31:38.143Z,174.65
2019-02-15T18:34:08.283Z,151.65
2019-02-15T18:36:38.358Z,159.72
2019-02-15T18:39:08.828Z,140.90
2019-02-15T18:41:38.922Z,197.75
2019-02-15T18:44:09.948Z,168.20
2019-02-15T18:46:40.035Z,175.80
2019-02-15T18:49:18.967Z,169.32
2019-02-15T18:51:41.876Z,138.32
2019-02-15T18:54:11.864Z,154.45
2019-02-15T18:56:41.984Z,135.40
2019-02-15T18:59:12.096Z,123.15
2019-02-15T19:01:42.116Z,107.90
2019-02-15T19:04:12.205Z,126.92
2019-02-15T19:06:42.317Z,136.43
2019-02-15T19:09:12.403Z,111.37
2019-02-15T19:11:42.543Z,99.15
2019-02-15T19:14:12.604Z,99.83
2019-02-15T19:16:42.679Z,114.65
2019-02-15T19:19:12.851Z,104.43
2019-02-15T19:21:42.893Z,128.47
2019-02-15T19:24:12.835Z,143.97
2019-02-15T19:26:42.964Z,137.30
2019-02-15T19:29:12.980Z,123.13
2019-02-15T19:31:42.956Z,87.55
2019-02-15T19:34:12.898Z,88.90
2019-02-15T19:36:43.011Z,101.92
2019-02-15T19:39:13.034Z,97.22
2019-02-15T19:41:43.115Z,82.42
2019-02-15T19:44:13.150Z,78.20
2019-02-15T19:46:43.068Z,73.67
2019-02-15T19:49:13.213Z,85.00
2019-02-15T19:51:43.299Z,76.70
2019-02-15T19:54:13.346Z,75.42
2019-02-15T19:56:43.292Z,72.47
2019-02-15T19:59:13.411Z,73.75
2019-02-15T20:01:45.032Z,77.05
2019-02-15T20:04:15.169Z,79.45
2019-02-15T20:06:45.178Z,77.05
2019-02-15T20:09:15.280Z,78.02
2019-02-15T20:11:45.559Z,70.65
2019-02-15T20:14:15.668Z,77.50
2019-02-15T20:16:47.471Z,73.83
2019-02-15T20:19:18.077Z,71.85
2019-02-15T20:21:51.780Z,79.72
2019-02-15T20:26:50.964Z,84.85
2019-02-15T20:29:21.012Z,84.80
2019-02-15T20:31:51.108Z,70.67
2019-02-15T20:34:21.228Z,70.28
2019-02-15T20:36:51.378Z,68.37
2019-02-15T20:39:22.536Z,80.65
2019-02-15T20:41:52.621Z,90.95
2019-02-15T20:44:22.720Z,94.65
2019-02-15T20:46:52.833Z,93.95
2019-02-15T20:49:24.010Z,88.33
2019-02-15T20:51:54.083Z,96.28
2019-02-15T20:54:24.206Z,95.55
2019-02-15T20:56:54.308Z,92.53
2019-02-15T20:59:24.418Z,86.20
2019-02-15T21:01:54.492Z,92.50
2019-02-15T21:04:24.617Z,105.87
2019-02-15T21:06:54.649Z,111.08
2019-02-15T21:09:24.684Z,98.27
2019-02-15T21:11:54.786Z,98.42
2019-02-15T21:14:25.946Z,106.70
2019-02-15T21:16:56.088Z,95.72
2019-02-15T21:19:27.113Z,103.47
2019-02-15T21:21:57.182Z,110.88
2019-02-15T21:24:46.079Z,126.27
2019-02-15T21:28:02.816Z,126.92
2019-02-15T21:44:17.101Z,114.60
2019-02-15T21:46:47.105Z,108.00
2019-02-15T21:49:17.192Z,120.97
2019-02-15T21:51:47.342Z,112.10
2019-02-15T21:54:57.718Z,119.55
2019-02-15T22:12:36.083Z,118.82
2019-02-15T22:15:11.330Z,124.27
2019-02-15T22:17:41.711Z,112.32
2019-02-15T22:20:26.007Z,110.72
2019-02-15T22:22:48.926Z,102.72
2019-02-15T22:25:19.117Z,106.43
2019-02-15T22:27:49.095Z,105.58
2019-02-15T22:30:20.097Z,111.28
2019-02-15T22:32:50.298Z,121.10
2019-02-15T22:35:20.307Z,119.70
2019-02-15T22:37:50.369Z,138.80
2019-02-15T22:40:32.051Z,132.70
2019-02-15T22:43:08.104Z,111.35
2019-02-15T22:45:38.270Z,112.92
2019-02-15T22:48:08.363Z,110.32
2019-02-15T22:50:38.486Z,107.10
2019-02-15T22:53:08.532Z,118.95
2019-02-15T22:55:38.614Z,104.60
2019-02-15T22:58:08.704Z,112.03
2019-02-15T23:00:49.437Z,107.47
2019-02-15T23:03:22.529Z,110.10
2019-02-15T23:05:52.647Z,112.70
2019-02-15T23:08:22.768Z,111.20
2019-02-15T23:10:52.874Z,121.15
2019-02-15T23:13:22.882Z,124.05
2019-02-15T23:15:53.960Z,130.12
2019-02-15T23:18:23.988Z,111.83
2019-02-15T23:20:54.161Z,105.12
2019-02-15T23:23:24.220Z,113.28
2019-02-15T23:25:54.268Z,112.15
2019-02-15T23:28:24.391Z,128.50
2019-02-15T23:30:54.516Z,94.47
2019-02-15T23:33:24.556Z,104.43
2019-02-15T23:35:54.580Z,103.85
2019-02-15T23:38:24.629Z,109.90
2019-02-15T23:40:54.648Z,108.42
2019-02-15T23:43:24.698Z,108.55
2019-02-15T23:45:54.680Z,97.10
2019-02-15T23:48:24.791Z,101.38
2019-02-15T23:50:55.346Z,96.20
2019-02-15T23:53:26.482Z,93.72
2019-02-15T23:55:56.436Z,100.62
2019-02-15T23:58:26.630Z,116.53
